Time;durP1;ratioP1;P1;durP2;ratioP2;P2;SDS_P1;SDS_P2;PMS_P1;PMS_P2;Temp;Humidity;BMP_temperature;BMP_pressure;BME280_temperature;BME280_humidity;BME280_pressure;Samples;Min_cycle;Max_cycle;Signal;HPM_P1;HPM_P2
2022/03/04 00:00:52;;;;;;;7.90;6.72;;;;;;;;;;5079524;28;20234;-84
2022/03/04 00:03:20;;;;;;;9.80;7.70;;;;;;;;;;5080670;28;20208;-83
2022/03/04 00:05:47;;;;;;;12.05;9.25;;;;;;;;;;5080875;28;20227;-83
2022/03/04 00:08:14;;;;;;;9.35;8.23;;;;;;;;;;5080720;28;20612;-82
2022/03/04 00:10:43;;;;;;;12.57;9.23;;;;;;;;;;5080945;28;20209;-81
2022/03/04 00:13:10;;;;;;;9.15;8.10;;;;;;;;;;5081608;28;20197;-83
2022/03/04 00:15:38;;;;;;;10.02;7.55;;;;;;;;;;5082254;28;20201;-82
2022/03/04 00:18:05;;;;;;;10.45;8.95;;;;;;;;;;5081734;28;20710;-81
2022/03/04 00:20:32;;;;;;;9.32;7.43;;;;;;;;;;5080654;28;20597;-81
2022/03/04 00:23:00;;;;;;;8.85;7.30;;;;;;;;;;5080826;28;20601;-81
2022/03/04 00:25:27;;;;;;;7.68;6.90;;;;;;;;;;5081183;28;20228;-81
2022/03/04 00:27:56;;;;;;;11.80;9.32;;;;;;;;;;5080892;28;20701;-82
2022/03/04 00:30:23;;;;;;;10.35;8.50;;;;;;;;;;5081430;28;20288;-82
2022/03/04 00:32:51;;;;;;;11.10;8.18;;;;;;;;;;5097801;28;20208;-82
2022/03/04 00:35:18;;;;;;;9.73;7.43;;;;;;;;;;5100597;28;20208;-83
2022/03/04 00:37:45;;;;;;;12.30;8.55;;;;;;;;;;5100861;28;20716;-82
2022/03/04 00:40:15;;;;;;;8.70;7.28;;;;;;;;;;5100455;28;20201;-82
2022/03/04 00:42:42;;;;;;;11.85;9.40;;;;;;;;;;5099609;28;20239;-82
2022/03/04 00:45:12;;;;;;;8.93;7.40;;;;;;;;;;5099740;28;20256;-82
2022/03/04 00:47:39;;;;;;;9.98;8.15;;;;;;;;;;5100025;28;20240;-82
2022/03/04 00:50:08;;;;;;;10.50;7.93;;;;;;;;;;5099958;28;20196;-81
2022/03/04 00:52:35;;;;;;;8.10;7.30;;;;;;;;;;5099520;28;20601;-82
2022/03/04 00:55:03;;;;;;;12.95;8.77;;;;;;;;;;5099472;28;20196;-81
2022/03/04 00:57:31;;;;;;;12.27;8.93;;;;;;;;;;5100272;28;20210;-82
2022/03/04 00:59:58;;;;;;;9.02;6.75;;;;;;;;;;5099611;28;20199;-81
2022/03/04 01:02:27;;;;;;;11.43;9.13;;;;;;;;;;5099808;28;20208;-81
2022/03/04 01:04:54;;;;;;;10.68;8.60;;;;;;;;;;5099976;28;20669;-82
2022/03/04 01:07:21;;;;;;;11.20;8.43;;;;;;;;;;5099198;28;20700;-82
2022/03/04 01:09:49;;;;;;;13.20;8.75;;;;;;;;;;5100558;28;20679;-82
2022/03/04 01:12:16;;;;;;;9.48;7.88;;;;;;;;;;5099692;28;20239;-81
2022/03/04 01:14:43;;;;;;;9.88;7.75;;;;;;;;;;5100014;28;20204;-81
2022/03/04 01:17:11;;;;;;;12.02;9.40;;;;;;;;;;5099216;28;20196;-81
2022/03/04 01:19:39;;;;;;;9.85;7.78;;;;;;;;;;5071589;22;20234;-82
2022/03/04 01:22:06;;;;;;;12.18;8.30;;;;;;;;;;5036268;28;20195;-82
2022/03/04 01:24:34;;;;;;;11.60;8.55;;;;;;;;;;5036594;28;20194;-82
2022/03/04 01:27:01;;;;;;;13.50;9.52;;;;;;;;;;5036515;28;20226;-82
2022/03/04 01:29:28;;;;;;;11.90;8.70;;;;;;;;;;5036876;28;20222;-82
2022/03/04 01:31:56;;;;;;;13.55;10.13;;;;;;;;;;5036670;28;20202;-82
2022/03/04 01:34:23;;;;;;;9.68;7.88;;;;;;;;;;5036030;28;20209;-82
2022/03/04 01:36:52;;;;;;;13.85;9.00;;;;;;;;;;5036573;28;20712;-82
2022/03/04 01:39:19;;;;;;;8.85;7.47;;;;;;;;;;5036985;28;20210;-83
2022/03/04 01:41:46;;;;;;;10.23;8.15;;;;;;;;;;5036779;28;20206;-82
2022/03/04 01:44:14;;;;;;;10.57;7.22;;;;;;;;;;5036772;28;20259;-82
2022/03/04 01:46:41;;;;;;;8.75;7.85;;;;;;;;;;5036385;28;20222;-82
2022/03/04 01:49:08;;;;;;;8.88;7.30;;;;;;;;;;5035753;28;20234;-83
2022/03/04 01:51:36;;;;;;;11.52;8.55;;;;;;;;;;5036638;28;20210;-82
2022/03/04 01:54:04;;;;;;;7.63;6.47;;;;;;;;;;5036431;28;20198;-83
2022/03/04 01:56:32;;;;;;;9.90;8.30;;;;;;;;;;5036833;28;20213;-83
2022/03/04 01:58:59;;;;;;;8.90;7.57;;;;;;;;;;5035957;28;20222;-83
2022/03/04 02:01:27;;;;;;;9.15;7.90;;;;;;;;;;5036678;28;20206;-83
2022/03/04 02:03:54;;;;;;;10.07;7.32;;;;;;;;;;5036039;28;20195;-83
2022/03/04 02:06:21;;;;;;;10.55;8.52;;;;;;;;;;5036341;28;20222;-83
2022/03/04 02:08:49;;;;;;;11.50;9.85;;;;;;;;;;5036391;28;20603;-83
2022/03/04 02:11:17;;;;;;;14.52;10.35;;;;;;;;;;5036192;28;20198;-83
2022/03/04 02:13:45;;;;;;;11.23;8.82;;;;;;;;;;5035915;28;20720;-82
2022/03/04 02:16:19;;;;;;;7.90;7.15;;;;;;;;;;5036434;28;20265;-82
2022/03/04 02:18:47;;;;;;;12.40;8.35;;;;;;;;;;5035898;28;20702;-83
2022/03/04 02:21:15;;;;;;;14.15;10.05;;;;;;;;;;5035565;28;20272;-83
2022/03/04 02:23:43;;;;;;;11.32;9.50;;;;;;;;;;5035360;28;20213;-83
2022/03/04 02:26:11;;;;;;;15.15;11.40;;;;;;;;;;5035901;28;20714;-83
2022/03/04 02:28:38;;;;;;;14.93;9.85;;;;;;;;;;5036023;28;20248;-83
2022/03/04 02:31:06;;;;;;;15.35;10.82;;;;;;;;;;5037061;28;20570;-84
2022/03/04 02:33:33;;;;;;;10.00;8.73;;;;;;;;;;5036053;28;20204;-83
2022/03/04 02:36:00;;;;;;;9.73;7.72;;;;;;;;;;5036040;28;20198;-83
2022/03/04 02:38:28;;;;;;;11.45;8.00;;;;;;;;;;5035255;28;20218;-83
2022/03/04 02:40:56;;;;;;;9.43;7.88;;;;;;;;;;5035969;28;20600;-83
2022/03/04 02:43:24;;;;;;;9.20;7.15;;;;;;;;;;5035217;28;20217;-83
2022/03/04 02:45:52;;;;;;;11.98;9.15;;;;;;;;;;5035652;28;20206;-83
2022/03/04 02:48:19;;;;;;;9.30;7.35;;;;;;;;;;5039274;28;20233;-82
2022/03/04 02:50:47;;;;;;;8.05;6.47;;;;;;;;;;5038723;28;20233;-83
2022/03/04 02:53:14;;;;;;;10.18;7.90;;;;;;;;;;5038840;28;20281;-83
2022/03/04 02:55:42;;;;;;;8.73;7.35;;;;;;;;;;5039143;28;20209;-82
2022/03/04 02:58:10;;;;;;;7.75;6.93;;;;;;;;;;5038991;28;20229;-83
2022/03/04 03:00:38;;;;;;;10.10;7.43;;;;;;;;;;5039731;28;20647;-84
2022/03/04 03:03:05;;;;;;;10.23;8.63;;;;;;;;;;5039735;28;20198;-84
2022/03/04 03:05:32;;;;;;;7.80;6.65;;;;;;;;;;5039879;28;20619;-83
2022/03/04 03:07:59;;;;;;;8.82;7.05;;;;;;;;;;5039331;28;20230;-84
2022/03/04 03:10:27;;;;;;;7.63;6.35;;;;;;;;;;5039124;28;20198;-84
2022/03/04 03:12:54;;;;;;;9.38;7.07;;;;;;;;;;5039511;28;20701;-84
2022/03/04 03:15:23;;;;;;;11.50;8.07;;;;;;;;;;5038976;28;20198;-84
2022/03/04 03:17:50;;;;;;;8.25;7.07;;;;;;;;;;5039281;28;20206;-84
2022/03/04 03:20:17;;;;;;;8.43;7.18;;;;;;;;;;5049790;28;20210;-84
2022/03/04 03:22:45;;;;;;;10.60;8.43;;;;;;;;;;5059452;28;20205;-84
2022/03/04 03:25:13;;;;;;;8.80;8.00;;;;;;;;;;5059101;28;20204;-83
2022/03/04 03:27:40;;;;;;;9.50;7.75;;;;;;;;;;5058946;28;20705;-83
2022/03/04 03:30:09;;;;;;;15.77;11.35;;;;;;;;;;5058593;28;20194;-83
2022/03/04 03:32:39;;;;;;;15.90;11.40;;;;;;;;;;5059389;28;20198;-84
2022/03/04 03:35:08;;;;;;;8.05;7.25;;;;;;;;;;5059375;28;20205;-83
2022/03/04 03:37:36;;;;;;;9.93;8.07;;;;;;;;;;5059229;28;20225;-83
2022/03/04 03:40:04;;;;;;;13.68;9.55;;;;;;;;;;5059033;28;20197;-84
2022/03/04 03:42:31;;;;;;;8.88;7.97;;;;;;;;;;5058906;28;20209;-84
2022/03/04 03:44:59;;;;;;;8.63;7.03;;;;;;;;;;5058101;28;20255;-83
2022/03/04 03:47:27;;;;;;;13.90;10.10;;;;;;;;;;5059171;28;20225;-84
2022/03/04 03:49:55;;;;;;;11.77;9.43;;;;;;;;;;5051577;28;20313;-83
2022/03/04 03:52:23;;;;;;;9.85;7.47;;;;;;;;;;5039614;28;20209;-84
2022/03/04 03:54:50;;;;;;;9.45;7.93;;;;;;;;;;5039479;28;20206;-84
2022/03/04 03:57:17;;;;;;;11.52;7.85;;;;;;;;;;5038807;28;20197;-84
2022/03/04 03:59:45;;;;;;;12.45;8.80;;;;;;;;;;5039299;28;20288;-84
2022/03/04 04:02:12;;;;;;;12.25;9.40;;;;;;;;;;5040272;28;20205;-84
2022/03/04 04:04:41;;;;;;;13.00;8.77;;;;;;;;;;5039303;28;20595;-83
2022/03/04 04:07:12;;;;;;;12.07;9.18;;;;;;;;;;5038507;28;20571;-82
2022/03/04 04:09:39;;;;;;;12.55;8.98;;;;;;;;;;5038748;28;20420;-84
2022/03/04 04:12:08;;;;;;;10.88;8.35;;;;;;;;;;5038755;28;20194;-84
2022/03/04 04:14:35;;;;;;;8.20;6.38;;;;;;;;;;5038277;28;20198;-84
2022/03/04 04:17:03;;;;;;;9.10;7.43;;;;;;;;;;5038461;28;20202;-84
2022/03/04 04:19:30;;;;;;;10.02;7.13;;;;;;;;;;5038347;28;20226;-83
2022/03/04 04:21:58;;;;;;;13.98;9.68;;;;;;;;;;5038105;28;20209;-83
2022/03/04 04:24:26;;;;;;;9.93;7.72;;;;;;;;;;5037955;28;20206;-83
2022/03/04 04:26:53;;;;;;;10.75;8.95;;;;;;;;;;5038732;28;20202;-83
2022/03/04 04:29:21;;;;;;;14.07;10.10;;;;;;;;;;5037961;28;20225;-83
2022/03/04 04:31:48;;;;;;;15.70;10.65;;;;;;;;;;5038109;28;20194;-83
2022/03/04 04:34:15;;;;;;;14.95;10.63;;;;;;;;;;5037486;28;20214;-83
2022/03/04 04:36:43;;;;;;;10.52;7.82;;;;;;;;;;5037584;28;20202;-84
2022/03/04 04:39:10;;;;;;;13.65;10.15;;;;;;;;;;5037346;28;20222;-83
2022/03/04 04:41:39;;;;;;;16.27;13.65;;;;;;;;;;5037716;28;20206;-83
2022/03/04 04:44:06;;;;;;;14.57;10.65;;;;;;;;;;5037629;28;20201;-83
2022/03/04 04:46:33;;;;;;;10.85;8.68;;;;;;;;;;5037560;28;20216;-83
2022/03/04 04:49:01;;;;;;;11.13;8.52;;;;;;;;;;5037346;28;20238;-84
2022/03/04 04:51:28;;;;;;;14.93;11.98;;;;;;;;;;5017865;28;20578;-83
2022/03/04 04:53:55;;;;;;;13.40;10.48;;;;;;;;;;5018356;28;20206;-84
2022/03/04 04:56:23;;;;;;;12.68;8.63;;;;;;;;;;5018895;28;20214;-84
2022/03/04 04:58:51;;;;;;;11.13;8.07;;;;;;;;;;5018726;28;20765;-84
2022/03/04 05:01:19;;;;;;;12.73;8.93;;;;;;;;;;5018573;28;20611;-84
2022/03/04 05:03:47;;;;;;;14.00;8.80;;;;;;;;;;5017913;28;20199;-83
2022/03/04 05:06:14;;;;;;;13.40;8.98;;;;;;;;;;5017469;28;20206;-84
2022/03/04 05:08:41;;;;;;;11.05;7.95;;;;;;;;;;5017172;28;20230;-83
2022/03/04 05:11:09;;;;;;;11.52;8.90;;;;;;;;;;5017182;28;20210;-84
2022/03/04 05:13:36;;;;;;;14.65;9.50;;;;;;;;;;5017297;28;20783;-85
2022/03/04 05:16:05;;;;;;;13.68;9.90;;;;;;;;;;5014653;28;20214;-85
2022/03/04 05:18:33;;;;;;;16.52;11.10;;;;;;;;;;5015349;28;20231;-86
2022/03/04 05:21:02;;;;;;;16.80;11.60;;;;;;;;;;5014402;28;20206;-85
2022/03/04 05:26:14;;;;;;;15.05;10.05;;;;;;;;;;5015586;28;20558;-84
2022/03/04 05:28:41;;;;;;;13.38;8.80;;;;;;;;;;5015967;28;20594;-86
2022/03/04 05:31:10;;;;;;;12.65;9.70;;;;;;;;;;5015504;28;20214;-86
2022/03/04 05:33:37;;;;;;;12.52;9.55;;;;;;;;;;5016031;28;20198;-86
2022/03/04 05:36:05;;;;;;;12.13;9.75;;;;;;;;;;5015624;28;20210;-86
2022/03/04 05:38:32;;;;;;;19.08;13.50;;;;;;;;;;5015397;28;20219;-85
2022/03/04 05:41:00;;;;;;;9.30;7.57;;;;;;;;;;5017086;28;20210;-85
2022/03/04 05:43:27;;;;;;;10.75;7.72;;;;;;;;;;5017687;28;20206;-83
2022/03/04 05:45:55;;;;;;;9.48;6.82;;;;;;;;;;5016805;28;20199;-83
2022/03/04 05:48:23;;;;;;;8.43;6.55;;;;;;;;;;5016837;28;20242;-84
2022/03/04 05:50:51;;;;;;;8.50;7.03;;;;;;;;;;5031947;28;20575;-85
2022/03/04 05:53:18;;;;;;;8.32;6.13;;;;;;;;;;5034148;28;20667;-87
2022/03/04 05:55:45;;;;;;;13.02;7.80;;;;;;;;;;5036508;28;20198;-85
2022/03/04 05:58:13;;;;;;;9.57;8.57;;;;;;;;;;5036350;28;20229;-86
2022/03/04 06:00:40;;;;;;;12.20;10.75;;;;;;;;;;5036034;28;20202;-85
2022/03/04 06:03:08;;;;;;;15.00;10.73;;;;;;;;;;5034941;28;20206;-85
2022/03/04 06:05:37;;;;;;;12.00;8.77;;;;;;;;;;5034491;28;20244;-86
2022/03/04 06:08:05;;;;;;;10.38;7.30;;;;;;;;;;5034489;28;20294;-86
2022/03/04 06:10:32;;;;;;;6.00;5.25;;;;;;;;;;5034075;28;20214;-86
2022/03/04 06:12:59;;;;;;;9.32;7.15;;;;;;;;;;5034175;28;20209;-86
2022/03/04 06:15:27;;;;;;;6.72;5.68;;;;;;;;;;5034027;28;20724;-86
2022/03/04 06:17:54;;;;;;;8.98;6.00;;;;;;;;;;5033424;28;20206;-86
2022/03/04 06:20:22;;;;;;;8.05;6.90;;;;;;;;;;5035335;28;20193;-86
2022/03/04 06:22:51;;;;;;;9.10;7.80;;;;;;;;;;5038534;28;20225;-87
2022/03/04 06:25:18;;;;;;;11.57;8.63;;;;;;;;;;5037401;28;20198;-87
2022/03/04 06:27:54;;;;;;;9.77;8.07;;;;;;;;;;5037336;28;20269;-87
2022/03/04 06:30:21;;;;;;;9.13;6.60;;;;;;;;;;5037166;28;20214;-87
2022/03/04 06:32:49;;;;;;;9.38;7.88;;;;;;;;;;5037432;28;20197;-87
2022/03/04 06:35:16;;;;;;;10.05;8.10;;;;;;;;;;5037070;28;20201;-86
2022/03/04 06:37:44;;;;;;;12.93;9.18;;;;;;;;;;5037573;28;20202;-86
2022/03/04 06:40:14;;;;;;;9.90;7.85;;;;;;;;;;5036751;28;20212;-85
2022/03/04 06:42:42;;;;;;;10.55;8.70;;;;;;;;;;5036815;28;20552;-85
2022/03/04 06:45:10;;;;;;;14.05;11.05;;;;;;;;;;5037407;28;20212;-85
2022/03/04 06:47:37;;;;;;;12.80;8.05;;;;;;;;;;5036542;28;20202;-85
2022/03/04 06:50:06;;;;;;;11.63;8.68;;;;;;;;;;5036998;28;20218;-86
2022/03/04 06:52:33;;;;;;;10.82;8.07;;;;;;;;;;5036377;28;20236;-85
2022/03/04 06:55:00;;;;;;;11.85;9.45;;;;;;;;;;5036979;28;20194;-86
2022/03/04 06:57:29;;;;;;;8.30;7.22;;;;;;;;;;5036745;28;20402;-86
2022/03/04 06:59:56;;;;;;;9.02;7.32;;;;;;;;;;5036793;28;20226;-86
2022/03/04 07:02:23;;;;;;;9.10;6.53;;;;;;;;;;5036751;28;20203;-86
2022/03/04 07:04:51;;;;;;;9.27;7.70;;;;;;;;;;5036743;28;20650;-86
2022/03/04 07:07:18;;;;;;;9.68;8.07;;;;;;;;;;5036693;28;20210;-87
2022/03/04 07:09:45;;;;;;;11.93;8.63;;;;;;;;;;5036256;28;20222;-86
2022/03/04 07:12:13;;;;;;;10.02;6.93;;;;;;;;;;5036499;28;20203;-86
2022/03/04 07:14:41;;;;;;;9.50;6.13;;;;;;;;;;5036578;28;20217;-86
2022/03/04 07:17:09;;;;;;;7.22;5.97;;;;;;;;;;5036658;28;20213;-86
2022/03/04 07:19:36;;;;;;;7.70;6.20;;;;;;;;;;5078306;22;20653;-78
2022/03/04 07:22:04;;;;;;;11.18;7.57;;;;;;;;;;5076846;28;20382;-80
2022/03/04 07:24:32;;;;;;;9.07;8.13;;;;;;;;;;5078621;28;20209;-80
2022/03/04 07:26:59;;;;;;;9.18;7.63;;;;;;;;;;5079140;28;20204;-80
2022/03/04 07:29:27;;;;;;;6.63;5.85;;;;;;;;;;5078881;28;20221;-80
2022/03/04 07:31:56;;;;;;;7.70;6.22;;;;;;;;;;5077734;28;20562;-80
2022/03/04 07:34:24;;;;;;;10.40;8.30;;;;;;;;;;5078119;28;20198;-80
2022/03/04 07:36:52;;;;;;;11.43;8.30;;;;;;;;;;5077914;28;20201;-80
2022/03/04 07:39:19;;;;;;;13.10;9.25;;;;;;;;;;5078265;28;20632;-79
2022/03/04 07:41:48;;;;;;;8.77;6.65;;;;;;;;;;5078279;28;20223;-78
2022/03/04 07:44:15;;;;;;;8.45;6.40;;;;;;;;;;5077103;28;20229;-79
2022/03/04 07:46:43;;;;;;;9.70;8.07;;;;;;;;;;5076666;28;20219;-80
2022/03/04 07:49:11;;;;;;;11.57;9.38;;;;;;;;;;5076571;28;20220;-79
2022/03/04 07:51:39;;;;;;;11.65;8.50;;;;;;;;;;5077458;28;20227;-79
2022/03/04 07:54:07;;;;;;;10.55;8.55;;;;;;;;;;5077024;28;20197;-79
2022/03/04 07:56:34;;;;;;;13.05;10.00;;;;;;;;;;5077450;28;20233;-80
2022/03/04 07:59:02;;;;;;;11.88;9.05;;;;;;;;;;5076515;28;20236;-80
2022/03/04 08:01:29;;;;;;;14.73;10.05;;;;;;;;;;5077230;28;20201;-80
2022/03/04 08:03:56;;;;;;;13.88;10.45;;;;;;;;;;5077772;28;20672;-81
2022/03/04 08:06:25;;;;;;;13.35;9.27;;;;;;;;;;5078194;28;20209;-80
2022/03/04 08:08:52;;;;;;;15.43;9.38;;;;;;;;;;5077503;28;20225;-80
2022/03/04 08:11:20;;;;;;;14.35;10.90;;;;;;;;;;5078180;28;20224;-80
2022/03/04 08:13:47;;;;;;;14.60;10.27;;;;;;;;;;5076894;28;20638;-84
2022/03/04 08:16:14;;;;;;;13.52;9.52;;;;;;;;;;5080725;28;20203;-81
2022/03/04 08:18:42;;;;;;;13.38;9.50;;;;;;;;;;5078466;28;20281;-81
2022/03/04 08:21:11;;;;;;;8.85;7.63;;;;;;;;;;5079599;28;20467;-82
2022/03/04 08:23:40;;;;;;;12.65;8.57;;;;;;;;;;5077611;28;20209;-78
2022/03/04 08:26:08;;;;;;;14.07;9.73;;;;;;;;;;5077511;28;20475;-79
2022/03/04 08:28:35;;;;;;;12.80;9.63;;;;;;;;;;5078057;28;20230;-81
2022/03/04 08:31:10;;;;;;;13.18;8.85;;;;;;;;;;5078912;28;20280;-81
2022/03/04 08:33:38;;;;;;;11.18;9.38;;;;;;;;;;5078585;28;20196;-79
2022/03/04 08:36:06;;;;;;;12.32;9.10;;;;;;;;;;5078975;28;20250;-81
2022/03/04 08:38:33;;;;;;;10.32;8.00;;;;;;;;;;5077602;28;20224;-81
2022/03/04 08:41:02;;;;;;;10.90;9.13;;;;;;;;;;5078688;28;20604;-81
2022/03/04 08:43:31;;;;;;;8.95;7.38;;;;;;;;;;5078323;28;20209;-81
2022/03/04 08:45:58;;;;;;;11.18;8.40;;;;;;;;;;5078782;28;20212;-81
2022/03/04 08:48:25;;;;;;;9.65;7.53;;;;;;;;;;5078828;28;20233;-81
2022/03/04 08:50:53;;;;;;;12.75;9.32;;;;;;;;;;5078672;28;20715;-81
2022/03/04 08:53:20;;;;;;;8.55;7.22;;;;;;;;;;5098772;28;20297;-81
2022/03/04 08:55:50;;;;;;;8.05;6.15;;;;;;;;;;5097584;28;20474;-81
2022/03/04 08:58:19;;;;;;;9.35;7.22;;;;;;;;;;5097331;28;20235;-80
2022/03/04 09:00:46;;;;;;;13.10;9.27;;;;;;;;;;5097295;28;20200;-81
2022/03/04 09:03:13;;;;;;;9.60;7.20;;;;;;;;;;5095931;28;20212;-80
2022/03/04 09:05:41;;;;;;;13.85;8.65;;;;;;;;;;5096354;28;20203;-80
2022/03/04 09:08:08;;;;;;;9.63;7.72;;;;;;;;;;5096885;28;20205;-81
2022/03/04 09:10:35;;;;;;;13.43;8.43;;;;;;;;;;5077702;28;20221;-80
2022/03/04 09:13:05;;;;;;;15.02;9.10;;;;;;;;;;5076710;28;20201;-81
2022/03/04 09:15:34;;;;;;;12.13;8.73;;;;;;;;;;5076947;28;20205;-82
2022/03/04 09:18:01;;;;;;;12.20;10.10;;;;;;;;;;5076824;28;20201;-83
2022/03/04 09:20:29;;;;;;;11.73;8.70;;;;;;;;;;5077069;28;20254;-79
2022/03/04 09:22:57;;;;;;;14.35;9.60;;;;;;;;;;5076552;28;20208;-81
2022/03/04 09:25:26;;;;;;;10.85;8.23;;;;;;;;;;5077574;28;20210;-82
2022/03/04 09:27:54;;;;;;;12.30;8.15;;;;;;;;;;5077426;28;20201;-83
2022/03/04 09:30:22;;;;;;;10.07;7.45;;;;;;;;;;5077013;28;20226;-83
2022/03/04 09:32:51;;;;;;;10.20;7.57;;;;;;;;;;5077362;28;20250;-82
2022/03/04 09:35:18;;;;;;;10.20;8.52;;;;;;;;;;5076896;28;20262;-84
2022/03/04 09:37:46;;;;;;;12.93;9.23;;;;;;;;;;5077472;28;20232;-80
2022/03/04 09:40:14;;;;;;;10.60;7.65;;;;;;;;;;5076713;28;20220;-80
2022/03/04 09:42:41;;;;;;;10.43;7.05;;;;;;;;;;5076780;28;20197;-84
2022/03/04 09:45:10;;;;;;;12.48;8.70;;;;;;;;;;5076695;28;20673;-81
2022/03/04 09:47:38;;;;;;;11.30;8.68;;;;;;;;;;5078000;28;20207;-80
2022/03/04 09:50:09;;;;;;;12.48;9.45;;;;;;;;;;5077383;28;20221;-80
2022/03/04 09:52:37;;;;;;;9.68;7.75;;;;;;;;;;5076840;28;20216;-80
2022/03/04 09:55:05;;;;;;;11.60;7.65;;;;;;;;;;5077435;28;20201;-81
2022/03/04 09:57:32;;;;;;;11.38;9.65;;;;;;;;;;5079402;28;20208;-83
2022/03/04 10:00:00;;;;;;;9.73;7.28;;;;;;;;;;5079947;28;20217;-83
2022/03/04 10:02:27;;;;;;;10.68;7.85;;;;;;;;;;5079988;28;20231;-82
2022/03/04 10:05:02;;;;;;;10.70;9.55;;;;;;;;;;5079570;28;20201;-83
2022/03/04 10:07:40;;;;;;;11.48;8.25;;;;;;;;;;5080550;28;20651;-82
2022/03/04 10:10:13;;;;;;;10.73;8.73;;;;;;;;;;5079411;28;20228;-81
2022/03/04 10:12:49;;;;;;;12.23;9.30;;;;;;;;;;5080668;28;20205;-82
2022/03/04 10:15:17;;;;;;;11.27;8.80;;;;;;;;;;5081512;28;20204;-83
2022/03/04 10:17:59;;;;;;;11.30;8.35;;;;;;;;;;5079898;28;20630;-83
2022/03/04 10:20:39;;;;;;;10.95;9.82;;;;;;;;;;5079977;28;20244;-83
2022/03/04 10:23:18;;;;;;;9.90;8.35;;;;;;;;;;5079719;28;20197;-82
2022/03/04 10:25:48;;;;;;;12.75;10.23;;;;;;;;;;5080948;28;20613;-86
2022/03/04 10:28:16;;;;;;;12.55;8.77;;;;;;;;;;5080696;28;20223;-85
2022/03/04 10:30:47;;;;;;;9.55;7.57;;;;;;;;;;5080619;28;20224;-84
2022/03/04 10:33:18;;;;;;;10.63;8.02;;;;;;;;;;5079867;28;20213;-82
2022/03/04 10:35:50;;;;;;;7.32;6.15;;;;;;;;;;5081839;28;20208;-82
2022/03/04 10:38:24;;;;;;;7.93;6.95;;;;;;;;;;5081984;28;20693;-83
2022/03/04 10:40:52;;;;;;;9.30;8.00;;;;;;;;;;5080091;28;20287;-83
2022/03/04 10:43:24;;;;;;;9.88;8.45;;;;;;;;;;5080251;28;20208;-83
2022/03/04 10:46:01;;;;;;;10.20;7.40;;;;;;;;;;5079660;28;20193;-83
2022/03/04 10:48:29;;;;;;;9.27;6.97;;;;;;;;;;5080027;28;20228;-81
2022/03/04 10:50:58;;;;;;;8.07;6.25;;;;;;;;;;5080593;28;20201;-83
2022/03/04 10:53:28;;;;;;;10.05;8.10;;;;;;;;;;5080114;28;20228;-83
2022/03/04 10:55:57;;;;;;;9.85;7.10;;;;;;;;;;5080178;28;20201;-82
2022/03/04 10:58:27;;;;;;;9.10;8.05;;;;;;;;;;5079751;28;20732;-83
2022/03/04 11:00:57;;;;;;;7.65;6.35;;;;;;;;;;5080696;28;20250;-82
2022/03/04 11:03:27;;;;;;;9.40;7.18;;;;;;;;;;5080334;28;20649;-83
2022/03/04 11:05:56;;;;;;;8.52;7.38;;;;;;;;;;5080148;28;20652;-83
2022/03/04 11:08:25;;;;;;;8.82;7.93;;;;;;;;;;5078856;28;20229;-83
2022/03/04 11:10:55;;;;;;;8.60;7.60;;;;;;;;;;5079261;28;20201;-83
2022/03/04 11:13:23;;;;;;;9.10;8.15;;;;;;;;;;5080165;28;20221;-83
2022/03/04 11:15:52;;;;;;;8.90;7.68;;;;;;;;;;5080191;28;20197;-82
2022/03/04 11:18:23;;;;;;;8.70;6.95;;;;;;;;;;5079752;28;20592;-82
2022/03/04 11:20:53;;;;;;;10.43;7.68;;;;;;;;;;5081197;28;20192;-84
2022/03/04 11:23:23;;;;;;;8.27;6.40;;;;;;;;;;5081358;28;20186;-84
2022/03/04 11:25:57;;;;;;;8.30;6.45;;;;;;;;;;5080578;28;20205;-83
2022/03/04 11:28:39;;;;;;;9.38;6.72;;;;;;;;;;5080454;28;20221;-83
2022/03/04 11:31:07;;;;;;;8.10;6.10;;;;;;;;;;5080446;28;20189;-83
2022/03/04 11:33:37;;;;;;;9.15;7.55;;;;;;;;;;5079261;28;20217;-83
2022/03/04 11:36:09;;;;;;;9.68;6.63;;;;;;;;;;5079854;28;20201;-83
2022/03/04 11:39:10;;;;;;;6.65;5.55;;;;;;;;;;5079497;28;20220;-83
2022/03/04 11:42:09;;;;;;;12.70;10.05;;;;;;;;;;5080056;28;20190;-83
2022/03/04 11:44:59;;;;;;;11.55;8.25;;;;;;;;;;5078253;28;20208;-83
2022/03/04 11:47:31;;;;;;;9.95;8.63;;;;;;;;;;5079081;28;20200;-83
2022/03/04 11:49:59;;;;;;;8.98;6.80;;;;;;;;;;5078988;28;20220;-84
2022/03/04 11:52:41;;;;;;;6.45;5.47;;;;;;;;;;5079037;28;20225;-83
2022/03/04 11:55:22;;;;;;;10.00;6.30;;;;;;;;;;5079101;28;20192;-84
2022/03/04 11:58:00;;;;;;;7.72;6.25;;;;;;;;;;5079019;28;20223;-84
2022/03/04 12:00:33;;;;;;;6.32;4.60;;;;;;;;;;5079334;28;20189;-84
2022/03/04 12:03:11;;;;;;;9.68;6.57;;;;;;;;;;5077726;28;20208;-83
2022/03/04 12:05:44;;;;;;;8.05;6.57;;;;;;;;;;5078405;28;20200;-84
2022/03/04 12:08:13;;;;;;;8.95;6.68;;;;;;;;;;5079389;28;20186;-83
2022/03/04 12:10:52;;;;;;;9.40;7.65;;;;;;;;;;5079296;28;20197;-83
2022/03/04 12:13:25;;;;;;;9.82;7.45;;;;;;;;;;5077967;28;20217;-84
2022/03/04 12:15:58;;;;;;;7.75;6.90;;;;;;;;;;5078636;28;20532;-82
2022/03/04 12:18:30;;;;;;;8.50;6.95;;;;;;;;;;5078362;28;20229;-83
2022/03/04 12:21:10;;;;;;;7.55;6.20;;;;;;;;;;5079768;28;20185;-83
2022/03/04 12:23:46;;;;;;;7.97;5.93;;;;;;;;;;5078412;28;20238;-81
2022/03/04 12:26:20;;;;;;;6.20;5.60;;;;;;;;;;5078295;28;20196;-83
2022/03/04 12:28:52;;;;;;;8.43;6.60;;;;;;;;;;5078654;28;20219;-82
2022/03/04 12:31:27;;;;;;;9.93;7.07;;;;;;;;;;5078138;28;20178;-81
2022/03/04 12:33:58;;;;;;;9.82;7.18;;;;;;;;;;5078528;28;20205;-83
2022/03/04 12:36:28;;;;;;;11.02;7.78;;;;;;;;;;5077866;28;20228;-83
2022/03/04 12:38:57;;;;;;;10.85;8.75;;;;;;;;;;5078076;28;20217;-82
2022/03/04 12:41:27;;;;;;;9.13;6.68;;;;;;;;;;5078052;28;20205;-83
2022/03/04 12:43:57;;;;;;;9.77;7.78;;;;;;;;;;5077993;28;20572;-83
2022/03/04 12:46:27;;;;;;;9.63;7.57;;;;;;;;;;5077551;28;20197;-83
2022/03/04 12:48:55;;;;;;;9.52;6.97;;;;;;;;;;5077994;28;20286;-83
2022/03/04 12:51:26;;;;;;;7.57;6.10;;;;;;;;;;5077805;28;20665;-83
2022/03/04 12:53:56;;;;;;;9.25;7.18;;;;;;;;;;5078456;28;20665;-82
2022/03/04 12:56:23;;;;;;;7.57;6.78;;;;;;;;;;5078118;28;20238;-82
2022/03/04 12:58:53;;;;;;;8.85;6.85;;;;;;;;;;5077619;28;20216;-83
2022/03/04 13:01:24;;;;;;;9.55;7.47;;;;;;;;;;5078629;28;20201;-82
2022/03/04 13:03:54;;;;;;;9.88;7.47;;;;;;;;;;5079042;28;20185;-81
2022/03/04 13:06:24;;;;;;;9.02;6.25;;;;;;;;;;5078493;28;20719;-84
2022/03/04 13:08:59;;;;;;;9.65;7.85;;;;;;;;;;5078865;28;20689;-82
2022/03/04 13:11:28;;;;;;;7.53;6.10;;;;;;;;;;5079300;28;20181;-82
2022/03/04 13:14:02;;;;;;;7.80;6.47;;;;;;;;;;5079664;28;20224;-83
2022/03/04 13:16:33;;;;;;;7.07;6.38;;;;;;;;;;5079321;28;20201;-82
2022/03/04 13:19:02;;;;;;;8.65;7.32;;;;;;;;;;5100888;22;20225;-83
2022/03/04 13:21:39;;;;;;;8.82;7.55;;;;;;;;;;5073202;28;20201;-83
2022/03/04 13:24:20;;;;;;;10.80;7.57;;;;;;;;;;5074834;28;20215;-83
2022/03/04 13:26:57;;;;;;;11.75;7.82;;;;;;;;;;5073607;28;20258;-84
2022/03/04 13:29:31;;;;;;;8.50;6.65;;;;;;;;;;5075036;28;20211;-84
2022/03/04 13:32:11;;;;;;;7.88;6.82;;;;;;;;;;5075596;28;20221;-84
2022/03/04 13:34:40;;;;;;;8.05;6.15;;;;;;;;;;5076832;28;20224;-83
2022/03/04 13:37:10;;;;;;;7.63;5.63;;;;;;;;;;5076397;28;20567;-84
2022/03/04 13:39:41;;;;;;;8.40;6.68;;;;;;;;;;5076436;28;20213;-84
2022/03/04 13:42:22;;;;;;;10.32;7.00;;;;;;;;;;5075916;28;20282;-84
2022/03/04 13:45:02;;;;;;;7.78;6.55;;;;;;;;;;5075803;28;20204;-84
2022/03/04 13:47:42;;;;;;;6.82;5.93;;;;;;;;;;5076743;28;20579;-83
2022/03/04 13:50:28;;;;;;;8.20;6.75;;;;;;;;;;5071834;28;20204;-83
2022/03/04 13:52:59;;;;;;;9.65;7.55;;;;;;;;;;5057093;28;20595;-83
2022/03/04 13:55:40;;;;;;;9.00;7.15;;;;;;;;;;5052589;28;20621;-84
2022/03/04 13:58:10;;;;;;;6.75;5.53;;;;;;;;;;5058433;28;20206;-83
2022/03/04 14:00:39;;;;;;;9.43;8.43;;;;;;;;;;5057128;28;20221;-81
2022/03/04 14:03:09;;;;;;;8.85;7.53;;;;;;;;;;5059327;28;20237;-84
2022/03/04 14:05:39;;;;;;;7.07;6.05;;;;;;;;;;5060225;28;20626;-84
2022/03/04 14:08:10;;;;;;;10.80;8.10;;;;;;;;;;5058462;28;20208;-83
2022/03/04 14:10:39;;;;;;;10.20;7.28;;;;;;;;;;5052713;28;20197;-83
2022/03/04 14:13:08;;;;;;;7.45;6.68;;;;;;;;;;5057424;28;20233;-83
2022/03/04 14:15:38;;;;;;;10.30;7.97;;;;;;;;;;5058727;28;20198;-84
2022/03/04 14:18:10;;;;;;;10.35;7.25;;;;;;;;;;5058782;28;20210;-84
2022/03/04 14:20:39;;;;;;;12.25;8.23;;;;;;;;;;5070182;28;20216;-82
2022/03/04 14:23:07;;;;;;;9.60;8.55;;;;;;;;;;5056873;28;20222;-83
2022/03/04 14:25:35;;;;;;;10.45;8.20;;;;;;;;;;5056741;28;20205;-84
2022/03/04 14:28:03;;;;;;;12.40;8.50;;;;;;;;;;5057098;28;20206;-84
2022/03/04 14:30:34;;;;;;;10.23;8.27;;;;;;;;;;5056929;28;20580;-84
2022/03/04 14:33:04;;;;;;;12.68;9.50;;;;;;;;;;5055943;28;20248;-83
2022/03/04 14:35:35;;;;;;;10.90;8.77;;;;;;;;;;5057889;28;20225;-83
2022/03/04 14:38:03;;;;;;;10.07;7.13;;;;;;;;;;5058749;28;20213;-83
2022/03/04 14:40:31;;;;;;;10.32;8.35;;;;;;;;;;5078000;28;20209;-83
2022/03/04 14:43:01;;;;;;;8.40;7.35;;;;;;;;;;5079840;28;20224;-82
2022/03/04 14:45:29;;;;;;;9.52;7.82;;;;;;;;;;5055182;28;20208;-82
2022/03/04 14:47:58;;;;;;;10.27;7.65;;;;;;;;;;5055723;28;20202;-84
2022/03/04 14:50:27;;;;;;;12.63;10.23;;;;;;;;;;5061777;28;20201;-82